Tiempo atmosférico en la estación meteorológica de Mollerussa, Lleida (250 m.)



Fecha
DESCASC
Temp. máxima en grados centígrados (hora)
DESCASC
Temp. mínima en grados centígrados (hora)
DESCASC
Temp. media en grados centígrados
DESCASC
Racha de viento máxima en m/sg (hora)
DESCASC
Velocidad máxima media en intervalos de 10 minutos(hora)
DESCASC
Precipitaciones diarias en mm
DESCASC
Precipitaciones de 00:00 a 06:00 en mm
DESCASC
Precipitaciones de 06:00 a 12:00 en mm
DESCASC
Precipitaciones de 12:00 a 18:00 en mm
DESCASC
Precipitaciones de 18:00 a 24:00 en mm
DESCASC
05-12-2019 11.1 (13:20) 8.7 (23:30) 9.9 8.89 (00:50) 5.83 (01:20) 15.8 6.6 7 1.6 0.6
04-12-2019 11.3 (22:50) 3.2 (09:10) 7.3 12.78 (23:00) 8.33 (23:10) 3.2 0 0.4 1.6 1.2
03-12-2019 6.9 (13:40) 2.7 (00:00) 4.8 4.17 (05:40) 2.5 (00:20) 0 0 0 0 0
02-12-2019 11.4 (15:00) 2.2 (00:00) 6.8 4.72 (12:50) 2.5 (12:50) 0 0 0 0 0
01-12-2019 14.2 (15:00) 3.8 (00:00) 9 8.33 (01:50) 4.44 (01:50) 0.2 0.2 0 0 0
30-11-2019 16.4 (15:10) 3.8 (00:00) 10.1 4.72 (23:00) 2.22 (21:10) 0 0 0 0 0
29-11-2019 18.7 (14:00) 7.6 (00:00) 13.2 10.28 (14:50) 5 (15:00) 0 0 0 0 0
28-11-2019 17.1 (14:20) 6.7 (00:00) 11.9 6.67 (12:50) 3.89 (02:50) 0 0 0 0 0
27-11-2019 16.1 (14:20) 6.9 (00:00) 11.5 8.89 (12:00) 4.72 (16:10) 0.2 0 0.2 0 0
26-11-2019 14.8 (14:00) 3.1 (00:00) 9 3.33 (13:30) 1.94 (23:50) 0 0 0 0 0
25-11-2019 15.7 (14:50) 5.3 (00:00) 10.5 6.11 (13:20) 3.61 (02:20) 0 0 0 0 0
24-11-2019 13.7 (13:40) 5.9 (00:00) 9.8 10.83 (14:10) 6.11 (13:10) 0 0 0 0 0
23-11-2019 12 (00:10) 7.1 (00:00) 9.5 14.17 (16:20) 6.11 (16:20) 0.6 0.4 0 0.2 0
22-11-2019 15 (14:00) 3.5 (00:00) 9.3 7.22 (15:10) 4.72 (15:30) 13.2 0 0 2.4 10.8
21-11-2019 13.2 (15:10) 1.8 (00:00) 7.5 5.28 (13:50) 2.5 (13:50) 0 0 0 0 0
20-11-2019 12.2 (14:50) -1.6 (-00:0) 5.3 3.33 (13:40) 1.67 (04:40) 0 0 0 0 0
19-11-2019 9.9 (14:50) -2.1 (-00:0) 3.9 5 (12:50) 2.5 (12:50) 0 0 0 0 0
18-11-2019 10.9 (15:10) 2.6 (00:00) 6.7 6.11 (21:00) 3.33 (21:10) 0 0 0 0 0
17-11-2019 12.7 (15:20) 1.5 (00:00) 7.1 8.33 (14:40) 3.33 (03:40) 0 0 0 0 0
16-11-2019 8 (15:20) 0.6 (00:00) 4.3 6.39 (17:30) 3.33 (17:30) 0 0 0 0 0
15-11-2019 9.1 (13:50) 1.4 (00:00) 5.3 6.94 (10:50) 3.61 (10:50) 0 0 0 0 0
14-11-2019 10.1 (15:50) 1.9 (00:00) 6 11.94 (12:00) 6.94 (12:00) 1 0.2 0.8 0 0
13-11-2019 12.4 (15:30) 5.6 (00:00) 9 6.39 (20:00) 3.89 (20:00) 1.2 0 1.2 0 0
12-11-2019 14.9 (14:50) 3.3 (00:00) 9.1 10 (16:20) 5 (16:20) 0 0 0 0 0
11-11-2019 12.7 (15:00) 2.1 (08:00) 7.4 7.78 (17:40) 4.72 (18:00) 0 0 0 0 0
10-11-2019 12.8 (14:00) 3.9 (00:00) 8.4 11.94 (14:30) 6.39 (14:30) 0 0 0 0 0
09-11-2019 14.8 (15:20) 5.1 (00:00) 10 10 (15:30) 5 (15:30) 0 0 0 0 0
08-11-2019 12.7 (14:30) 3.8 (00:00) 8.2 17.5 (16:10) 7.78 (17:00) 0 0 0 0 0
07-11-2019 14.2 (14:20) 5.9 (00:00) 10 10 (14:40) 4.72 (14:40) 0 0 0 0 0
06-11-2019 16.8 (15:00) 7.1 (00:00) 11.9 10 (15:40) 6.11 (15:20) 0 0 0 0 0

Gráficas

Temp. máximas Temp. mínimas Temp. medias Precipitaciones Rachas de viento máximas Velocidades máximas media en intervalos de 10 minutos

Datos horarios

Fecha y hora oficial Temperatura (ºC) Velocidad del viento (km/h) Dirección del viento Racha (km/h) Dirección de racha Precipitación (mm) Presión (hPa) Tendencia (hPa) Humedad (%)
2019-12-05 23:00:00 8.9 2 Oeste 4 Sudoeste 0 -- -- 98
2019-12-05 22:00:00 8.9 2 Sudeste 3 Sudoeste 0 -- -- 98
2019-12-05 21:00:00 9 3 Sur 6 Norte 0 -- -- 98
2019-12-05 20:00:00 9.2 2 Sudoeste 10 Sudoeste 0 -- -- 97
2019-12-05 19:00:00 9.3 5 Sudoeste 10 Oeste 0.2 -- -- 97
2019-12-05 18:00:00 9.7 4 Oeste 6 Sudoeste 0.4 -- -- 96
2019-12-05 17:00:00 10.3 0 Calma 9 Oeste 0.2 -- -- 96
2019-12-05 16:00:00 10.7 5 Oeste 9 Oeste 0.6 -- -- 95
2019-12-05 15:00:00 10.9 3 Oeste 10 Oeste 0.2 -- -- 94
2019-12-05 14:00:00 11.1 5 Sudoeste 13 Oeste 0 -- -- 94
2019-12-05 13:00:00 10.7 5 Oeste 11 Sudoeste 0.2 -- -- 98
2019-12-05 12:00:00 10.2 4 Sudoeste 14 Oeste 1 -- -- 99
2019-12-05 11:00:00 9.8 3 Sudoeste 8 Sudoeste 1.2 -- -- 99
2019-12-05 10:00:00 9.4 4 Oeste 7 Oeste 0.8 -- -- 99
2019-12-05 09:00:00 8.9 2 Oeste 6 Noroeste 1 -- -- 98
2019-12-05 08:00:00 8.8 2 Oeste 4 Noroeste 1.2 -- -- 98
2019-12-05 07:00:00 9 0 Calma 8 Nordeste 1.8 -- -- 97
2019-12-05 06:00:00 8.9 2 Norte 10 Nordeste 1.2 -- -- 97
2019-12-05 05:00:00 9 6 Nordeste 12 Norte 1.4 -- -- 97
2019-12-05 04:00:00 9.2 9 Nordeste 16 Nordeste 1.8 -- -- 95
2019-12-05 03:00:00 9.9 7 Este 16 Nordeste 1.4 -- -- 91
2019-12-05 02:00:00 10.3 8 Este 29 Este 0.6 -- -- 89
2019-12-05 01:00:00 10.5 10 Este 32 Este 0.2 -- -- 86
2019-12-05 00:00:00 10.8 18 Nordeste 44 Este 0.2 -- -- 84
2019-12-04 23:00:00 11.3 28 Este 46 Este 0.2 -- -- 82
2019-12-04 22:00:00 10.7 17 Este 40 Este 0 -- -- 85
2019-12-04 21:00:00 10.6 16 Este 41 Este 0.2 -- -- 85
2019-12-04 20:00:00 10.6 12 Nordeste 28 Este 0 -- -- 86
2019-12-04 19:00:00 10 10 Sudeste 32 Este 0.6 -- -- 90
2019-12-04 18:00:00 10.6 13 Este 26 Este 0.2 -- -- 85
2019-12-04 17:00:00 10.7 12 Este 33 Este 1.4 -- -- 87
2019-12-04 16:00:00 8.6 4 Norte 7 Noroeste 0 -- -- 94
2019-12-04 15:00:00 7.9 3 Noroeste 11 Oeste 0 -- -- 95
2019-12-04 14:00:00 7.6 6 Oeste 12 Sudoeste 0 -- -- 96
2019-12-04 13:00:00 6.5 4 Oeste 9 Noroeste 0 -- -- 98
2019-12-04 12:00:00 5.6 5 Oeste 9 Oeste 0 -- -- 99
2019-12-04 11:00:00 4.5 5 Oeste 8 Oeste 0.4 -- -- 99
2019-12-04 10:00:00 3.5 2 Este 9 Norte 0 -- -- 98
2019-12-04 09:00:00 3.3 4 Noroeste 7 Noroeste 0 -- -- 97
2019-12-04 08:00:00 3.5 2 Noroeste 16 Oeste 0 -- -- 97
2019-12-04 07:00:00 3.4 7 Sudoeste 16 Sudeste 0 -- -- 97
2019-12-04 06:00:00 4 5 Oeste 13 Oeste 0 -- -- 95
2019-12-04 05:00:00 4.3 3 Oeste 9 Oeste 0 -- -- 96
2019-12-04 04:00:00 4.2 3 Sudoeste 13 Norte 0 -- -- 94
2019-12-04 03:00:00 4.7 2 Oeste 5 Oeste 0 -- -- 96
2019-12-04 02:00:00 4.5 4 Sur 5 Sur 0 -- -- 96
2019-12-04 01:00:00 4.2 0 Calma 4 Norte 0 -- -- 96
2019-12-04 00:00:00 3.7 0 Calma 4 Oeste 0 -- -- 95
2019-12-03 23:00:00 4.3 0 Calma 4 Sur 0 -- -- 95
2019-12-03 22:00:00 4.3 0 Calma 3 Sudeste 0 -- -- 94
2019-12-03 21:00:00 4.2 0 Calma 5 Sudoeste 0 -- -- 93
2019-12-03 20:00:00 3.8 3 Sudoeste 6 Oeste 0 -- -- 92
2019-12-03 19:00:00 4.4 3 Sudoeste 5 Sur 0 -- -- 90
2019-12-03 18:00:00 4.5 3 Sudoeste 5 Sur 0 -- -- 88
2019-12-03 17:00:00 5.7 2 Noroeste 6 Oeste 0 -- -- 83
2019-12-03 16:00:00 6.4 3 Noroeste 7 Norte 0 -- -- 82
2019-12-03 15:00:00 6.4 0 Calma 6 Noroeste 0 -- -- 80
2019-12-03 14:00:00 6.6 3 Noroeste 8 Norte 0 -- -- 80
2019-12-03 13:00:00 6.2 2 Noroeste 7 Nordeste 0 -- -- 81
2019-12-03 12:00:00 5.9 3 Nordeste 6 Oeste 0 -- -- 82
2019-12-03 11:00:00 5.1 2 Norte 5 Sudoeste 0 -- -- 84
2019-12-03 10:00:00 4.6 2 Oeste 9 Oeste 0 -- -- 88
2019-12-03 09:00:00 3.8 4 Sur 7 Sudeste 0 -- -- 92
2019-12-03 08:00:00 3 4 Sudoeste 13 Sudoeste 0 -- -- 90
2019-12-03 07:00:00 3.4 6 Sudoeste 12 Sudoeste 0 -- -- 91
2019-12-03 06:00:00 3.6 8 Sudoeste 15 Oeste 0 -- -- 93
2019-12-03 05:00:00 3.6 6 Sudoeste 13 Oeste 0 -- -- 95
2019-12-03 04:00:00 3 6 Sudoeste 14 Sudoeste 0 -- -- 96
2019-12-03 03:00:00 2.9 6 Oeste 12 Oeste 0 -- -- 96
2019-12-03 02:00:00 3.5 7 Oeste 13 Oeste 0 -- -- 97
2019-12-03 01:00:00 3.7 6 Oeste 14 Oeste 0 -- -- 97
2019-12-03 00:00:00 4.1 8 Sudoeste 15 Oeste 0 -- -- 97
2019-12-02 23:00:00 2.8 0 Calma 4 Norte 0 -- -- 96
2019-12-02 22:00:00 3.5 0 Calma 6 Sudeste 0 -- -- 96
2019-12-02 21:00:00 3.5 4 Sudeste 5 Sudeste 0 -- -- 92
2019-12-02 20:00:00 4.5 3 Sudeste 4 Sudeste 0 -- -- 91
2019-12-02 19:00:00 6 0 Calma 5 Oeste 0 -- -- 89
2019-12-02 18:00:00 7.7 3 Oeste 4 Oeste 0 -- -- 86
2019-12-02 17:00:00 9.8 3 Oeste 12 Oeste 0 -- -- 79
2019-12-02 16:00:00 10.6 5 Oeste 13 Oeste 0 -- -- 76
2019-12-02 15:00:00 11.4 6 Oeste 16 Oeste 0 -- -- 73
2019-12-02 14:00:00 10.8 9 Oeste 15 Oeste 0 -- -- 75
2019-12-02 13:00:00 10.2 7 Noroeste 17 Oeste 0 -- -- 79
2019-12-02 12:00:00 9.5 8 Oeste 15 Oeste 0 -- -- 86
2019-12-02 11:00:00 6.9 4 Sudoeste 12 Sudoeste 0 -- -- 97
2019-12-02 10:00:00 4.5 0 Calma 5 Nordeste 0 -- -- 98
2019-12-02 09:00:00 3.9 3 Oeste 6 Norte 0 -- -- 98
2019-12-02 08:00:00 3.5 0 Calma 4 Norte 0 -- -- 96
2019-12-02 07:00:00 4.1 3 Noroeste 13 Sudoeste 0 -- -- 97
2019-12-02 06:00:00 4 5 Oeste 10 Oeste 0 -- -- 97
2019-12-02 05:00:00 4 3 Oeste 8 Oeste 0 -- -- 97
2019-12-02 04:00:00 3.5 3 Noroeste 7 Sudeste 0 -- -- 97
2019-12-02 03:00:00 2.4 3 Sudoeste 6 Sudeste 0 -- -- 96
2019-12-02 02:00:00 2.6 4 Sur 6 Sudeste 0 -- -- 94
2019-12-02 01:00:00 3.3 3 Sudeste 12 Nordeste 0 -- -- 94
2019-12-02 00:00:00 3.8 2 Oeste 7 Nordeste 0 -- -- 93
2019-12-01 23:00:00 4.6 6 Este 9 Sudeste 0 -- -- 91
2019-12-01 22:00:00 5.7 4 Sudeste 8 Sudeste 0 -- -- 91
2019-12-01 21:00:00 5.3 4 Sudeste 10 Sudeste 0 -- -- 89
2019-12-01 20:00:00 6.5 4 Sur 8 Sudoeste 0 -- -- 85
2019-12-01 19:00:00 8 5 Oeste 9 Oeste 0 -- -- 82
2019-12-01 18:00:00 9.8 5 Sudoeste 8 Sudoeste 0 -- -- 77
2019-12-01 17:00:00 11.7 3 Sudoeste 13 Oeste 0 -- -- 70
2019-12-01 16:00:00 13 5 Oeste 14 Oeste 0 -- -- 66
2019-12-01 15:00:00 14.2 8 Oeste 14 Oeste 0 -- -- 63
2019-12-01 14:00:00 13.5 4 Noroeste 14 Oeste 0 -- -- 61
2019-12-01 13:00:00 13.2 6 Oeste 14 Oeste 0 -- -- 65
2019-12-01 12:00:00 12.8 5 Oeste 12 Oeste 0 -- -- 70
2019-12-01 11:00:00 12 3 Sudoeste 9 Sudoeste 0 -- -- 77
2019-12-01 10:00:00 9.7 5 Sudoeste 10 Sudoeste 0 -- -- 93
2019-12-01 09:00:00 7.1 3 Sur 10 Sur 0 -- -- 96
2019-12-01 08:00:00 6.5 3 Sudoeste 9 Oeste 0 -- -- 94
2019-12-01 07:00:00 7.5 5 Oeste 17 Oeste 0 -- -- 92
2019-12-01 06:00:00 8.6 9 Oeste 17 Oeste 0 -- -- 90
2019-12-01 05:00:00 9.4 8 Oeste 15 Sudoeste 0 -- -- 89
2019-12-01 04:00:00 10.2 7 Sudoeste 18 Oeste 0 -- -- 91
2019-12-01 03:00:00 10.7 10 Oeste 24 Oeste 0 -- -- 91
2019-12-01 02:00:00 11 16 Oeste 30 Oeste 0 -- -- 92
2019-12-01 01:00:00 11.2 14 Oeste 27 Oeste 0.2 -- -- 93
2019-12-01 00:00:00 11.1 4 Sur 13 Noroeste 0 -- -- 90
2019-11-30 23:00:00 12.2 7 Noroeste 17 Oeste 0 -- -- 90
2019-11-30 22:00:00 12.6 7 Sudeste 13 Sudeste 0 -- -- 89
2019-11-30 21:00:00 12.7 7 Sur 10 Sur 0 -- -- 88
2019-11-30 20:00:00 11.7 7 Sur 10 Sur 0 -- -- 89
2019-11-30 19:00:00 11.4 3 Sur 6 Sudeste 0 -- -- 83
2019-11-30 18:00:00 12.9 0 Calma 6 Este 0 -- -- 78
2019-11-30 17:00:00 15.2 4 Este 8 Este 0 -- -- 69
2019-11-30 16:00:00 15.9 3 Este 9 Nordeste 0 -- -- 66
2019-11-30 15:00:00 16.2 3 Nordeste 10 Noroeste 0 -- -- 66
2019-11-30 14:00:00 15.2 3 Norte 7 Norte 0 -- -- 68
2019-11-30 13:00:00 15.2 3 Noroeste 9 Sudeste 0 -- -- 67
2019-11-30 12:00:00 13.7 4 Este 9 Sudeste 0 -- -- 77
2019-11-30 11:00:00 11.2 0 Calma 6 Norte 0 -- -- 85
2019-11-30 10:00:00 8.2 4 Este 9 Sudeste 0 -- -- 92
2019-11-30 09:00:00 5.6 4 Este 9 Este 0 -- -- 98
2019-11-30 08:00:00 4.3 3 Este 8 Sur 0 -- -- 96
2019-11-30 07:00:00 4.1 5 Sur 9 Sur 0 -- -- 96
2019-11-30 06:00:00 3.8 0 Calma 6 Norte 0 -- -- 96
2019-11-30 05:00:00 3.9 5 Sur 7 Sudeste 0 -- -- 94
2019-11-30 04:00:00 4.5 3 Sur 4 Sur 0 -- -- 93
2019-11-30 03:00:00 5.7 0 Calma 6 Norte 0 -- -- 92
2019-11-30 02:00:00 6.4 4 Sur 6 Sur 0 -- -- 93
2019-11-30 01:00:00 6.4 4 Sur 6 Sudeste 0 -- -- 91
2019-11-30 00:00:00 7.6 0 Calma 9 Este 0 -- -- 87
2019-11-29 23:00:00 9.6 6 Sudoeste 17 Sudoeste 0 -- -- 85
2019-11-29 22:00:00 10.4 8 Sudoeste 15 Sudoeste 0 -- -- 82
2019-11-29 21:00:00 10.4 10 Sur 14 Sur 0 -- -- 81
2019-11-29 20:00:00 10.8 6 Sudoeste 19 Oeste 0 -- -- 77
2019-11-29 19:00:00 11.8 10 Oeste 19 Oeste 0 -- -- 74
2019-11-29 18:00:00 12.9 9 Oeste 18 Noroeste 0 -- -- 70
2019-11-29 17:00:00 15.4 8 Oeste 26 Oeste 0 -- -- 63
2019-11-29 16:00:00 16.8 10 Oeste 32 Oeste 0 -- -- 58
2019-11-29 15:00:00 18.1 18 Oeste 37 Oeste 0 -- -- 56
2019-11-29 14:00:00 18.7 14 Noroeste 28 Oeste 0 -- -- 54
2019-11-29 13:00:00 17.8 15 Oeste 34 Oeste 0 -- -- 63
2019-11-29 12:00:00 16.2 13 Oeste 30 Oeste 0 -- -- 72
2019-11-29 11:00:00 14.8 8 Oeste 21 Oeste 0 -- -- 77
2019-11-29 10:00:00 12.5 7 Oeste 13 Oeste 0 -- -- 84
2019-11-29 09:00:00 10 7 Oeste 14 Oeste 0 -- -- 89
2019-11-29 08:00:00 9.7 8 Oeste 14 Oeste 0 -- -- 87
2019-11-29 07:00:00 10.5 10 Oeste 18 Oeste 0 -- -- 84
2019-11-29 06:00:00 11.2 12 Oeste 20 Oeste 0 -- -- 81
2019-11-29 05:00:00 10.7 10 Oeste 14 Sudoeste 0 -- -- 82
2019-11-29 04:00:00 10.9 8 Sudoeste 13 Sudoeste 0 -- -- 79
2019-11-29 03:00:00 10.9 7 Sudoeste 11 Sudoeste 0 -- -- 81
2019-11-29 02:00:00 10.5 4 Sudoeste 12 Oeste 0 -- -- 82
2019-11-29 01:00:00 10.6 6 Sudoeste 12 Oeste 0 -- -- 81
2019-11-29 00:00:00 11 5 Oeste 15 Sudoeste 0 -- -- 79
2019-11-28 23:00:00 11.5 9 Oeste 18 Oeste 0 -- -- 77
2019-11-28 22:00:00 12.6 12 Oeste 23 Oeste 0 -- -- 73
2019-11-28 21:00:00 13.1 11 Oeste 21 Oeste 0 -- -- 73
2019-11-28 20:00:00 12.8 8 Sudoeste 18 Sudoeste 0 -- -- 77
2019-11-28 19:00:00 12.1 5 Sudoeste 9 Sudoeste 0 -- -- 83
2019-11-28 18:00:00 12.6 3 Sudoeste 5 Sur 0 -- -- 80
2019-11-28 17:00:00 14.6 3 Noroeste 5 Sur 0 -- -- 76
2019-11-28 16:00:00 16.2 4 Oeste 14 Oeste 0 -- -- 68
2019-11-28 15:00:00 16.2 6 Oeste 22 Oeste 0 -- -- 67
2019-11-28 14:00:00 17 11 Oeste 24 Oeste 0 -- -- 62
2019-11-28 13:00:00 16.5 14 Oeste 24 Oeste 0 -- -- 64
2019-11-28 12:00:00 15.1 10 Noroeste 21 Oeste 0 -- -- 69
2019-11-28 11:00:00 13.6 9 Oeste 17 Sudoeste 0 -- -- 72
2019-11-28 10:00:00 11.4 3 Noroeste 15 Oeste 0 -- -- 78
2019-11-28 09:00:00 8.9 8 Sudoeste 15 Sudoeste 0 -- -- 86
2019-11-28 08:00:00 7.3 4 Sudoeste 10 Sudoeste 0 -- -- 87
2019-11-28 07:00:00 8.7 4 Oeste 15 Oeste 0 -- -- 83
2019-11-28 06:00:00 8.5 8 Sudoeste 15 Sudoeste 0 -- -- 85
2019-11-28 05:00:00 8 8 Oeste 15 Sudoeste 0 -- -- 86
2019-11-28 04:00:00 8.4 7 Sudoeste 17 Oeste 0 -- -- 84
2019-11-28 03:00:00 9.7 13 Oeste 22 Oeste 0 -- -- 81
2019-11-28 02:00:00 9.1 12 Oeste 17 Oeste 0 -- -- 82
2019-11-28 01:00:00 9.2 9 Oeste 15 Oeste 0 -- -- 81
2019-11-28 00:00:00 9.8 9 Oeste 16 Oeste 0 -- -- 79
2019-11-27 23:00:00 9.9 8 Sudoeste 15 Oeste 0 -- -- 81
2019-11-27 22:00:00 10 8 Sudoeste 15 Oeste 0 -- -- 80
2019-11-27 21:00:00 10.4 0 Calma 9 Oeste 0 -- -- 79
2019-11-27 20:00:00 10.2 3 Oeste 10 Oeste 0 -- -- 79
2019-11-27 19:00:00 11.1 6 Oeste 12 Oeste 0 -- -- 73
2019-11-27 18:00:00 12.2 6 Oeste 12 Oeste 0 -- -- 69
2019-11-27 17:00:00 14.1 7 Oeste 31 Oeste 0 -- -- 65
2019-11-27 16:00:00 15.4 13 Oeste 28 Oeste 0 -- -- 57
2019-11-27 15:00:00 16 12 Oeste 27 Oeste 0 -- -- 62
2019-11-27 14:00:00 15.9 12 Oeste 30 Oeste 0 -- -- 61
2019-11-27 06:00:00 -- -- -- -- -- -- -- -- --
2019-11-27 05:00:00 7.1 5 Oeste 10 Noroeste 0 -- -- 98
2019-11-27 04:00:00 7.4 3 Noroeste 8 Noroeste 0 -- -- 97
2019-11-27 03:00:00 7.5 3 Sudeste 8 Oeste 0 -- -- 96
2019-11-27 02:00:00 8.2 5 Noroeste 10 Noroeste 0 -- -- 96
2019-11-27 01:00:00 8.9 3 Sudeste 6 Sur 0 -- -- 93
2019-11-27 00:00:00 9.8 6 Sur 9 Sudeste 0 -- -- 94
2019-11-26 23:00:00 9.6 5 Sudeste 8 Sudeste 0 -- -- 96
2019-11-26 22:00:00 9.1 2 Noroeste 7 Este 0 -- -- 95
2019-11-26 21:00:00 9 3 Sudeste 7 Sur 0 -- -- 93
2019-11-26 20:00:00 9.3 4 Norte 7 Norte 0 -- -- 91
2019-11-26 19:00:00 9.7 6 Sur 7 Sur 0 -- -- 88
2019-11-26 18:00:00 11.5 3 Sudeste 5 Sur 0 -- -- 83
2019-11-26 17:00:00 13.8 0 Calma 7 Oeste 0 -- -- 77
2019-11-26 16:00:00 14.5 4 Oeste 7 Oeste 0 -- -- 75
2019-11-26 15:00:00 14.5 0 Calma 11 Sudoeste 0 -- -- 73
2019-11-26 14:00:00 14.8 5 Noroeste 12 Oeste 0 -- -- 72
2019-11-26 13:00:00 13.2 4 Noroeste 10 Oeste 0 -- -- 80
2019-11-26 12:00:00 11 3 Norte 6 Norte 0 -- -- 95
2019-11-26 11:00:00 7.9 2 Este 8 Nordeste 0 -- -- 100
2019-11-26 10:00:00 5.9 3 Sudeste 6 Sur 0 -- -- 100
2019-11-26 09:00:00 4 0 Calma 5 Norte 0 -- -- 99
2019-11-26 08:00:00 3.3 0 Calma 4 Noroeste 0 -- -- 99
2019-11-26 07:00:00 3.1 0 Calma 3 Sudeste 0 -- -- 98
2019-11-26 06:00:00 3.9 2 Sudoeste 5 Oeste 0 -- -- 98
2019-11-26 05:00:00 3.9 0 Calma 4 Sur 0 -- -- 97
2019-11-26 04:00:00 4.6 3 Noroeste 4 Oeste 0 -- -- 97
2019-11-26 03:00:00 5 0 Calma 4 Noroeste 0 -- -- 96
2019-11-26 02:00:00 5.2 3 Sudoeste 5 Sur 0 -- -- 97
2019-11-26 01:00:00 4.9 4 Sur 6 Sur 0 -- -- 95
2019-11-26 00:00:00 5.6 3 Sudeste 4 Sur 0 -- -- 94
2019-11-25 23:00:00 6.4 3 Sudeste 5 Sur 0 -- -- 93
2019-11-25 22:00:00 7.3 0 Calma 5 Sudeste 0 -- -- 92
2019-11-25 21:00:00 8.5 2 Sudeste 5 Sur 0 -- -- 92
2019-11-25 20:00:00 9.2 2 Sur 6 Este 0 -- -- 91
2019-11-25 19:00:00 10.2 0 Calma 5 Sur 0 -- -- 88
2019-11-25 18:00:00 11.9 4 Sudeste 6 Sur 0 -- -- 81
2019-11-25 17:00:00 14.2 3 Sur 8 Oeste 0 -- -- 76
2019-11-25 16:00:00 15.2 5 Oeste 13 Oeste 0 -- -- 72
2019-11-25 15:00:00 15.7 7 Oeste 17 Oeste 0 -- -- 68
2019-11-25 14:00:00 15.2 8 Oeste 22 Noroeste 0 -- -- 68
2019-11-25 13:00:00 14.2 13 Oeste 21 Oeste 0 -- -- 69
2019-11-25 12:00:00 13.1 10 Oeste 16 Sudoeste 0 -- -- 75
2019-11-25 11:00:00 11.2 5 Oeste 11 Sudoeste 0 -- -- 79
2019-11-25 10:00:00 8.8 4 Oeste 11 Sur 0 -- -- 87
2019-11-25 09:00:00 6.6 5 Sur 10 Sur 0 -- -- 94
2019-11-25 08:00:00 6.1 4 Oeste 13 Sudoeste 0 -- -- 91
2019-11-25 07:00:00 6 7 Sudoeste 15 Sur 0 -- -- 91
2019-11-25 06:00:00 5.7 8 Sudoeste 14 Sudoeste 0 -- -- 91
2019-11-25 05:00:00 5.8 8 Oeste 14 Sudoeste 0 -- -- 89
2019-11-25 04:00:00 5.8 7 Oeste 19 Sudoeste 0 -- -- 88
2019-11-25 03:00:00 6.5 10 Oeste 21 Sudoeste 0 -- -- 85
2019-11-25 02:00:00 6.6 11 Oeste 18 Oeste 0 -- -- 83
2019-11-25 01:00:00 6.5 8 Sudoeste 19 Sudoeste 0 -- -- 83
2019-11-25 00:00:00 6.4 10 Sudoeste 17 Sudoeste 0 -- -- 84
2019-11-24 23:00:00 6.3 10 Oeste 17 Oeste 0 -- -- 85
2019-11-24 22:00:00 6.9 7 Sudoeste 17 Sudoeste 0 -- -- 84
2019-11-24 21:00:00 7.6 9 Sudoeste 19 Sudoeste 0 -- -- 83
2019-11-24 20:00:00 8.4 9 Sudoeste 18 Sudoeste 0 -- -- 80
2019-11-24 19:00:00 9.1 10 Sudoeste 21 Sudoeste 0 -- -- 79
2019-11-24 18:00:00 9.8 10 Oeste 25 Oeste 0 -- -- 76
2019-11-24 17:00:00 11.7 16 Oeste 30 Oeste 0 -- -- 70
2019-11-24 16:00:00 12.5 16 Oeste 33 Oeste 0 -- -- 70
2019-11-24 15:00:00 12.7 15 Oeste 39 Oeste 0 -- -- 67
2019-11-24 14:00:00 13.7 15 Oeste 37 Oeste 0 -- -- 65
2019-11-24 13:00:00 13.5 20 Oeste 35 Oeste 0 -- -- 66
2019-11-24 12:00:00 12.6 15 Oeste 33 Oeste 0 -- -- 68
2019-11-24 11:00:00 10.7 16 Oeste 31 Oeste 0 -- -- 74
2019-11-24 10:00:00 9 18 Oeste 30 Oeste 0 -- -- 79
2019-11-24 09:00:00 7.1 13 Oeste 27 Oeste 0 -- -- 86
2019-11-24 08:00:00 6.2 15 Oeste 28 Sudoeste 0 -- -- 87
2019-11-24 07:00:00 6.4 15 Oeste 27 Oeste 0 -- -- 85
2019-11-24 06:00:00 6.4 15 Oeste 26 Oeste 0 -- -- 87
2019-11-24 05:00:00 6 13 Oeste 23 Oeste 0 -- -- 88
2019-11-24 04:00:00 6.3 9 Oeste 36 Oeste 0 -- -- 88
2019-11-24 03:00:00 6.3 9 Oeste 19 Oeste 0 -- -- 86
2019-11-24 02:00:00 7 9 Oeste 32 Oeste 0 -- -- 84
2019-11-24 01:00:00 6.9 14 Oeste 26 Oeste 0 -- -- 86
2019-11-24 00:00:00 7.1 14 Oeste 31 Oeste 0 -- -- 85
2019-11-23 23:00:00 7.2 15 Oeste 29 Oeste 0 -- -- 84
2019-11-23 22:00:00 7.6 16 Oeste 31 Oeste 0 -- -- 82
2019-11-23 21:00:00 8 15 Oeste 39 Oeste 0 -- -- 80
2019-11-23 20:00:00 8.6 15 Oeste 35 Oeste 0 -- -- 78
2019-11-23 19:00:00 9.3 13 Oeste 39 Oeste 0 -- -- 76
2019-11-23 18:00:00 9.6 19 Oeste 45 Oeste 0 -- -- 76
2019-11-23 17:00:00 10.1 18 Noroeste 51 Oeste 0 -- -- 75
2019-11-23 16:00:00 11 17 Oeste 44 Noroeste 0 -- -- 73
2019-11-23 15:00:00 11.8 16 Noroeste 48 Oeste 0 -- -- 71
2019-11-23 14:00:00 11.6 19 Noroeste 49 Oeste 0 -- -- 76
2019-11-23 13:00:00 10.8 19 Oeste 43 Oeste 0.2 -- -- 81
2019-11-23 12:00:00 10.3 17 Oeste 36 Oeste 0 -- -- 87
2019-11-23 11:00:00 10.2 13 Oeste 29 Oeste 0 -- -- 83
2019-11-23 10:00:00 10.2 15 Oeste 31 Oeste 0 -- -- 83
2019-11-23 09:00:00 8.4 11 Sudoeste 18 Sudoeste 0 -- -- 91
2019-11-23 08:00:00 7.6 7 Sudoeste 14 Sudoeste 0 -- -- 94
2019-11-23 07:00:00 7.7 8 Sudoeste 16 Oeste 0 -- -- 93
2019-11-23 06:00:00 8.1 8 Sudoeste 12 Sudoeste 0 -- -- 96
2019-11-23 05:00:00 8.8 4 Noroeste 8 Noroeste 0.2 -- -- 96
2019-11-23 04:00:00 8.9 2 Oeste 12 Sudoeste 0 -- -- 93
2019-11-23 03:00:00 9.5 7 Sudoeste 15 Sur 0 -- -- 90
2019-11-23 02:00:00 10.1 9 Sur 19 Sudoeste 0 -- -- 92
2019-11-23 01:00:00 10.4 8 Sudoeste 44 Oeste 0.2 -- -- 91
2019-11-23 00:00:00 11.8 4 Oeste 14 Sur 0 -- -- 94
2019-11-22 23:00:00 12.3 8 Sur 20 Sur 0 -- -- 95
2019-11-22 22:00:00 12 10 Sur 19 Sur 1.2 -- -- 97
2019-11-22 21:00:00 11.9 8 Sudeste 16 Oeste 3.6 -- -- 95
2019-11-22 20:00:00 11.7 7 Sudeste 19 Sudeste 1.6 -- -- 94
2019-11-22 19:00:00 11.1 5 Nordeste 12 Norte 4.4 -- -- 95
2019-11-22 18:00:00 11.2 6 Sudeste 18 Sudeste 1.4 -- -- 91
2019-11-22 17:00:00 11.3 8 Sudeste 21 Sudeste 0.8 -- -- 89
2019-11-22 16:00:00 12.8 10 Sudeste 26 Sur 0.2 -- -- 81
2019-11-22 15:00:00 14.2 13 Sur 21 Sur 0 -- -- 70
2019-11-22 14:00:00 15 9 Sudeste 18 Sur 0 -- -- 66
2019-11-22 13:00:00 14.8 12 Sudeste 19 Sudeste 0 -- -- 69
2019-11-22 12:00:00 13.1 4 Nordeste 9 Nordeste 0 -- -- 78
2019-11-22 11:00:00 10.3 5 Nordeste 8 Este 0 -- -- 82
2019-11-22 10:00:00 7.1 0 Calma 6 Sudeste 0 -- -- 91
2019-11-22 09:00:00 5.4 3 Sudeste 6 Sur 0 -- -- 94
2019-11-22 08:00:00 4.2 2 Sur 6 Sur 0 -- -- 94
2019-11-22 07:00:00 3.7 4 Sur 7 Sudeste 0 -- -- 94
2019-11-22 06:00:00 3.7 0 Calma 4 Sudeste 0 -- -- 92
2019-11-22 05:00:00 4.9 4 Sudeste 7 Sudeste 0 -- -- 88
2019-11-22 04:00:00 5.8 4 Sudeste 8 Este 0 -- -- 87
2019-11-22 03:00:00 5.9 3 Sudeste 9 Sudeste 0 -- -- 88
2019-11-22 02:00:00 5.8 0 Calma 5 Sudeste 0 -- -- 89
2019-11-22 01:00:00 5.4 5 Sudeste 7 Sudeste 0 -- -- 91
2019-11-22 00:00:00 4.7 4 Sur 5 Sur 0 -- -- 92
2019-11-21 23:00:00 4.5 2 Este 9 Norte 0 -- -- 89
2019-11-21 22:00:00 4.8 6 Sur 8 Sudeste 0 -- -- 88
2019-11-21 21:00:00 5.5 5 Sudeste 8 Sur 0 -- -- 84
2019-11-21 20:00:00 6.9 4 Sur 8 Sudoeste 0 -- -- 82
2019-11-21 19:00:00 7 3 Sur 6 Sur 0 -- -- 84
2019-11-21 18:00:00 8.2 3 Sudoeste 6 Sudoeste 0 -- -- 77
2019-11-21 17:00:00 10.7 0 Calma 6 Oeste 0 -- -- 71
2019-11-21 16:00:00 12.3 5 Oeste 12 Noroeste 0 -- -- 64
2019-11-21 15:00:00 13.1 3 Noroeste 16 Oeste 0 -- -- 63
2019-11-21 14:00:00 12.8 8 Noroeste 19 Oeste 0 -- -- 65
2019-11-21 13:00:00 11.2 7 Oeste 13 Oeste 0 -- -- 73
2019-11-21 12:00:00 8.9 4 Sudoeste 10 Sudoeste 0 -- -- 81
2019-11-21 11:00:00 6.8 4 Sudeste 6 Sudeste 0 -- -- 88
2019-11-21 10:00:00 5.3 0 Calma 6 Oeste 0 -- -- 94
2019-11-21 09:00:00 3.4 2 Norte 6 Sudoeste 0 -- -- 98
2019-11-21 08:00:00 1.8 4 Oeste 6 Sudoeste 0 -- -- 96
2019-11-21 07:00:00 2.4 2 Sur 5 Sudeste 0 -- -- 95
2019-11-21 06:00:00 3.5 2 Sudeste 10 Oeste 0 -- -- 96
2019-11-21 05:00:00 3.4 4 Oeste 6 Oeste 0 -- -- 96
2019-11-21 04:00:00 3.2 3 Norte 6 Sur 0 -- -- 96
2019-11-21 03:00:00 2.4 0 Calma 6 Este 0 -- -- 95
2019-11-21 02:00:00 3 4 Sudeste 7 Sur 0 -- -- 95
2019-11-21 01:00:00 3 4 Sudeste 7 Sudeste 0 -- -- 95
2019-11-21 00:00:00 3.1 0 Calma 6 Sur 0 -- -- 95
2019-11-20 23:00:00 3.1 3 Sudeste 8 Este 0 -- -- 94
2019-11-20 22:00:00 3.4 3 Sudeste 6 Sudeste 0 -- -- 91
2019-11-20 21:00:00 4.3 3 Sudeste 5 Sudeste 0 -- -- 88
2019-11-20 20:00:00 5.5 5 Sudeste 6 Sudeste 0 -- -- 84
2019-11-20 19:00:00 6.7 3 Sur 5 Sudeste 0 -- -- 79
2019-11-20 18:00:00 8.6 0 Calma 5 Nordeste 0 -- -- 75
2019-11-20 17:00:00 10.5 2 Nordeste 6 Norte 0 -- -- 68
2019-11-20 16:00:00 11.5 3 Norte 6 Norte 0 -- -- 62
2019-11-20 15:00:00 12.2 3 Este 11 Norte 0 -- -- 58
2019-11-20 14:00:00 11.2 5 Norte 12 Norte 0 -- -- 60
2019-11-20 13:00:00 10.3 5 Nordeste 9 Nordeste 0 -- -- 63
2019-11-20 12:00:00 8.5 4 Nordeste 8 Norte 0 -- -- 70
2019-11-20 11:00:00 7.4 4 Este 9 Este 0 -- -- 77
2019-11-20 10:00:00 3.7 3 Este 5 Este 0 -- -- 94
2019-11-20 09:00:00 0 0 Calma 4 Sur 0 -- -- 97
2019-11-20 08:00:00 -1.1 0 Calma 7 Norte 0 -- -- 96
2019-11-20 07:00:00 -0.6 2 Noroeste 6 Sur 0 -- -- 97
2019-11-20 06:00:00 -1.3 4 Sudeste 7 Sudeste 0 -- -- 96
2019-11-20 05:00:00 -1.5 4 Sudeste 8 Sudeste 0 -- -- 95
2019-11-20 04:00:00 -1.2 2 Este 8 Sur 0 -- -- 95
2019-11-20 03:00:00 -1.3 4 Sudeste 5 Sudeste 0 -- -- 95
2019-11-20 02:00:00 -1.1 5 Sur 7 Sur 0 -- -- 94
2019-11-20 01:00:00 -0.8 4 Sur 6 Este 0 -- -- 93
2019-11-20 00:00:00 -0.5 4 Sudeste 6 Sudeste 0 -- -- 93
2019-11-19 23:00:00 0.1 3 Este 8 Nordeste 0 -- -- 91
2019-11-19 22:00:00 0.6 4 Sudeste 7 Sudeste 0 -- -- 90
2019-11-19 21:00:00 2.3 4 Sudeste 10 Sudeste 0 -- -- 84
2019-11-19 20:00:00 2.8 6 Sudeste 9 Sudeste 0 -- -- 85
2019-11-19 19:00:00 3.3 4 Sudeste -- -- 0 -- -- 84
2019-11-19 18:00:00 4.9 0 Calma 3 Oeste 0 -- -- 79
2019-11-19 17:00:00 7.6 3 Oeste 13 Oeste 0 -- -- 68
2019-11-19 16:00:00 9.1 8 Oeste 15 Sudoeste 0 -- -- 61
2019-11-19 15:00:00 9.9 8 Oeste 15 Oeste 0 -- -- 61
2019-11-19 14:00:00 9.3 7 Noroeste 17 Oeste 0 -- -- 66
2019-11-19 13:00:00 8.4 9 Oeste 18 Sudoeste 0 -- -- 70
2019-11-19 12:00:00 7 5 Noroeste 14 Oeste 0 -- -- 76
2019-11-19 11:00:00 5.5 7 Oeste 15 Oeste 0 -- -- 84
2019-11-19 10:00:00 3.6 0 Calma 5 Este 0 -- -- 96
2019-11-19 09:00:00 -0.1 0 Calma 4 Sur 0 -- -- 98
2019-11-19 08:00:00 -2.1 2 Sudeste 3 Sudeste 0 -- -- 96
2019-11-19 07:00:00 -1.9 2 Sur 5 Oeste 0 -- -- 95
2019-11-19 06:00:00 -1.8 0 Calma 4 Sur 0 -- -- 94
2019-11-19 05:00:00 -1 2 Sur -- -- 0 -- -- 94
2019-11-19 04:00:00 -0.3 0 Calma 5 Sudoeste 0 -- -- 92
2019-11-19 03:00:00 1 0 Calma 8 Oeste 0 -- -- 91
2019-11-19 02:00:00 1.4 4 Sudoeste 8 Sudoeste 0 -- -- 90
2019-11-19 01:00:00 2 3 Sudoeste 10 Sur 0 -- -- 87
2019-11-19 00:00:00 2.6 4 Sudoeste 13 Oeste 0 -- -- 85
2019-11-18 23:00:00 3.9 7 Sudoeste 21 Sudoeste 0 -- -- 81
2019-11-18 22:00:00 4.5 10 Sudoeste 21 Sudoeste 0 -- -- 81
2019-11-18 21:00:00 4.9 10 Sudoeste 22 Oeste 0 -- -- 81
2019-11-18 20:00:00 5.5 9 Sudoeste 21 Oeste 0 -- -- 80
2019-11-18 19:00:00 6 7 Oeste 14 Oeste 0 -- -- 87
2019-11-18 18:00:00 7 2 Oeste 4 Oeste 0 -- -- 84
2019-11-18 17:00:00 9.3 2 Noroeste 13 Oeste 0 -- -- 78
2019-11-18 16:00:00 10.2 6 Oeste 15 Oeste 0 -- -- 74
2019-11-18 15:00:00 10.8 5 Noroeste 19 Oeste 0 -- -- 74
2019-11-18 14:00:00 -- -- -- -- -- -- -- -- --
2019-11-18 13:00:00 -- -- -- -- -- -- -- -- --
2019-11-18 12:00:00 -- -- -- -- -- -- -- -- --
2019-11-18 11:00:00 -- -- -- -- -- -- -- -- --
2019-11-18 10:00:00 -- -- -- -- -- -- -- -- --
2019-11-18 09:00:00 -- -- -- -- -- -- -- -- --
2019-11-18 08:00:00 5.2 4 Noroeste 9 Oeste 0 -- -- 98
2019-11-18 07:00:00 4.2 0 Calma 4 Oeste 0 -- -- 98
2019-11-18 06:00:00 4.4 0 Calma 12 Oeste 0 -- -- 96
2019-11-18 05:00:00 4.9 6 Oeste 13 Oeste 0 -- -- 96
2019-11-18 04:00:00 4.8 5 Oeste 10 Sudoeste 0 -- -- 96
2019-11-18 03:00:00 5.3 5 Oeste 9 Oeste 0 -- -- 92
2019-11-18 02:00:00 6.7 5 Oeste 9 Sudoeste 0 -- -- 93
2019-11-18 01:00:00 6.6 5 Sudoeste 12 Sudoeste 0 -- -- 93
2019-11-18 00:00:00 7 6 Sudoeste 13 Sudoeste 0 -- -- 92
2019-11-17 23:00:00 6.9 7 Sudoeste 13 Sudoeste 0 -- -- 92
2019-11-17 22:00:00 7.5 6 Sudoeste 14 Sudoeste 0 -- -- 92
2019-11-17 21:00:00 7.5 5 Sudoeste 13 Sudoeste 0 -- -- 92
2019-11-17 20:00:00 7.8 7 Oeste 13 Oeste 0 -- -- 86
2019-11-17 19:00:00 9.4 7 Oeste 16 Oeste 0 -- -- 79
2019-11-17 18:00:00 10 3 Oeste 11 Oeste 0 -- -- 76
2019-11-17 17:00:00 10.8 5 Oeste 20 Oeste 0 -- -- 70
2019-11-17 16:00:00 11.5 10 Oeste 27 Oeste 0 -- -- 65
2019-11-17 15:00:00 12.5 10 Noroeste 30 Noroeste 0 -- -- 62
2019-11-17 14:00:00 10 4 Noroeste 11 Noroeste 0 -- -- 72
2019-11-17 13:00:00 9.9 5 Norte 17 Oeste 0 -- -- 70
2019-11-17 12:00:00 9 6 Noroeste 18 Oeste 0 -- -- 73
2019-11-17 11:00:00 7.7 9 Oeste 21 Noroeste 0 -- -- 77
2019-11-17 10:00:00 6.3 12 Oeste 21 Oeste 0 -- -- 82
2019-11-17 09:00:00 4.1 8 Oeste 20 Sudoeste 0 -- -- 89
2019-11-17 08:00:00 2.9 11 Oeste 20 Sudoeste 0 -- -- 90
2019-11-17 07:00:00 2.6 9 Sudoeste 17 Sudoeste 0 -- -- 92
2019-11-17 06:00:00 2.4 9 Oeste 20 Sudoeste 0 -- -- 92
2019-11-17 05:00:00 2.4 9 Sudoeste 19 Sudoeste 0 -- -- 92
2019-11-17 04:00:00 2.6 11 Oeste 21 Oeste 0 -- -- 93
2019-11-17 03:00:00 1.6 6 Sudoeste 13 Sudoeste 0 -- -- 95
2019-11-17 02:00:00 2.1 5 Sudoeste 9 Sudoeste 0 -- -- 94
2019-11-17 01:00:00 2.3 5 Sudoeste 12 Oeste 0 -- -- 94
2019-11-17 00:00:00 3.1 5 Oeste 13 Noroeste 0 -- -- 93
2019-11-16 23:00:00 2.7 4 Oeste 13 Oeste 0 -- -- 93
2019-11-16 22:00:00 2.9 5 Oeste 9 Oeste 0 -- -- 92
2019-11-16 21:00:00 3.5 5 Oeste 12 Oeste 0 -- -- 91
2019-11-16 20:00:00 4.5 5 Oeste 14 Oeste 0 -- -- 88
2019-11-16 19:00:00 5.4 8 Oeste 19 Oeste 0 -- -- 85
2019-11-16 18:00:00 6.8 8 Oeste 23 Oeste 0 -- -- 79
2019-11-16 17:00:00 7.4 8 Oeste 23 Oeste 0 -- -- 76
2019-11-16 16:00:00 7.9 9 Noroeste 22 Oeste 0 -- -- 67
2019-11-16 15:00:00 7.8 6 Oeste 16 Oeste 0 -- -- 73
2019-11-16 14:00:00 6.9 6 Oeste 15 Oeste 0 -- -- 76
2019-11-16 13:00:00 5.9 5 Sudoeste 10 Oeste 0 -- -- 80
2019-11-16 12:00:00 5.5 4 Oeste 10 Sudoeste 0 -- -- 79
2019-11-16 11:00:00 4.7 4 Sudoeste 12 Sudoeste 0 -- -- 85
2019-11-16 10:00:00 4 4 Sudoeste 10 Oeste 0 -- -- 92
2019-11-16 09:00:00 3.4 3 Oeste 7 Oeste 0 -- -- 94
2019-11-16 08:00:00 3.1 0 Calma 6 Sudoeste 0 -- -- 96
2019-11-16 07:00:00 2.6 0 Calma 3 Oeste 0 -- -- 97
2019-11-16 06:00:00 2 2 Oeste 4 Sur 0 -- -- 97
2019-11-16 05:00:00 1.1 3 Sur 9 Sudeste 0 -- -- 96
2019-11-16 04:00:00 1.2 3 Norte 15 Oeste 0 -- -- 94
2019-11-16 03:00:00 1.9 6 Oeste 14 Oeste 0 -- -- 94
2019-11-16 02:00:00 1.7 6 Oeste 14 Sudoeste 0 -- -- 93
2019-11-16 01:00:00 2.6 5 Sudoeste 17 Oeste 0 -- -- 92
2019-11-16 00:00:00 3.3 12 Oeste 19 Oeste 0 -- -- 92
2019-11-15 23:00:00 3.4 8 Sudoeste 16 Sudoeste 0 -- -- 91
2019-11-15 22:00:00 4.1 8 Oeste 19 Oeste 0 -- -- 88
2019-11-15 21:00:00 5 10 Oeste 23 Oeste 0 -- -- 86
2019-11-15 20:00:00 6.1 8 Oeste 24 Oeste 0 -- -- 83
2019-11-15 19:00:00 7.4 12 Oeste 24 Oeste 0 -- -- 79
2019-11-15 18:00:00 7 5 Sur 8 Sur 0 -- -- 84
2019-11-15 17:00:00 7.7 2 Sudeste 8 Norte 0 -- -- 81
2019-11-15 16:00:00 8.4 3 Norte 7 Norte 0 -- -- 73
2019-11-15 15:00:00 8.5 0 Calma 16 Oeste 0 -- -- 70
2019-11-15 14:00:00 9.1 6 Oeste 16 Noroeste 0 -- -- 71
2019-11-15 13:00:00 7.9 7 Oeste 14 Oeste 0 -- -- 76
2019-11-15 12:00:00 7.8 5 Oeste 20 Oeste 0 -- -- 79
2019-11-15 11:00:00 7.6 9 Oeste 25 Oeste 0 -- -- 83
2019-11-15 10:00:00 5 9 Oeste 15 Oeste 0 -- -- 98
2019-11-15 09:00:00 2.1 2 Oeste 11 Sudoeste 0 -- -- 98
2019-11-15 08:00:00 1.8 5 Oeste 12 Sudoeste 0 -- -- 97
2019-11-15 07:00:00 1.4 4 Oeste 10 Oeste 0 -- -- 96
2019-11-15 06:00:00 1.7 5 Oeste 12 Oeste 0 -- -- 95
2019-11-15 05:00:00 2.3 3 Sur 5 Sur 0 -- -- 93
2019-11-15 04:00:00 3.3 0 Calma 5 Noroeste 0 -- -- 94
2019-11-15 03:00:00 3.5 2 Noroeste 5 Noroeste 0 -- -- 94
2019-11-15 02:00:00 3.3 2 Norte 7 Norte 0 -- -- 94
2019-11-15 01:00:00 3.2 3 Oeste 7 Oeste 0 -- -- 95
2019-11-15 00:00:00 2.1 3 Sur 5 Sur 0 -- -- 94
2019-11-14 23:00:00 2.1 0 Calma 10 Sudeste 0 -- -- 92
2019-11-14 22:00:00 2.7 4 Sur 8 Sur 0 -- -- 90
2019-11-14 21:00:00 4 4 Sur 12 Oeste 0 -- -- 86
2019-11-14 20:00:00 5.3 9 Oeste 17 Oeste 0 -- -- 82
2019-11-14 19:00:00 6 9 Oeste 22 Sudoeste 0 -- -- 79
2019-11-14 18:00:00 7.1 12 Oeste 26 Oeste 0 -- -- 74
2019-11-14 17:00:00 9 13 Oeste 31 Oeste 0 -- -- 67
2019-11-14 16:00:00 9.9 16 Oeste 30 Oeste 0 -- -- 65
2019-11-14 15:00:00 8.5 12 Oeste 27 Oeste 0 -- -- 80
2019-11-14 14:00:00 7.7 16 Oeste 30 Oeste 0 -- -- 83
2019-11-14 13:00:00 7.8 16 Oeste 40 Oeste 0 -- -- 84
2019-11-14 12:00:00 8.6 25 Oeste 43 Oeste 0 -- -- 84
2019-11-14 11:00:00 7.5 14 Sudoeste 33 Oeste 0.2 -- -- 92
2019-11-14 10:00:00 8.7 12 Oeste 28 Oeste 0.4 -- -- 92
2019-11-14 09:00:00 7.4 8 Sudeste 12 Sur 0 -- -- 94
2019-11-14 08:00:00 6.7 6 Sur 9 Sur 0 -- -- 93
2019-11-14 07:00:00 6.8 3 Norte 7 Norte 0.2 -- -- 91
2019-11-14 06:00:00 6.8 3 Sudeste 6 Este 0.2 -- -- 89
2019-11-14 05:00:00 7.1 4 Sudeste 8 Sudoeste 0 -- -- 84
2019-11-14 04:00:00 6.7 5 Sudeste 12 Sudeste 0 -- -- 84
2019-11-14 03:00:00 6 4 Sudeste 6 Este 0 -- -- 88
2019-11-14 02:00:00 5.4 0 Calma 5 Este 0 -- -- 90
2019-11-14 01:00:00 5.2 3 Sudeste 6 Norte 0 -- -- 88
2019-11-14 00:00:00 6.7 3 Sudoeste 13 Sudoeste 0 -- -- 81
2019-11-13 23:00:00 7.2 8 Oeste 17 Sudoeste 0 -- -- 79
2019-11-13 22:00:00 7.4 8 Sudoeste 18 Sudoeste 0 -- -- 78
2019-11-13 21:00:00 7.8 6 Oeste 20 Oeste 0 -- -- 76
2019-11-13 20:00:00 8.4 14 Oeste 23 Oeste 0 -- -- 75
2019-11-13 19:00:00 9.3 10 Sudoeste 22 Oeste 0 -- -- 76
2019-11-13 18:00:00 10.2 12 Oeste 23 Oeste 0 -- -- 74
2019-11-13 17:00:00 11.4 4 Oeste 14 Sudoeste 0 -- -- 83
2019-11-13 16:00:00 12.2 10 Oeste 19 Oeste 0 -- -- 78
2019-11-13 15:00:00 11.9 9 Oeste 19 Oeste 0 -- -- 79
2019-11-13 14:00:00 12 8 Oeste 18 Oeste 0 -- -- 78
2019-11-13 13:00:00 11 8 Oeste 14 Noroeste 0 -- -- 86
2019-11-13 12:00:00 8.3 5 Oeste 10 Oeste 0 -- -- 95
2019-11-13 11:00:00 7.3 2 Norte 11 Oeste 0 -- -- 95
2019-11-13 10:00:00 7.6 5 Oeste 12 Noroeste 0.2 -- -- 95
2019-11-13 09:00:00 6.6 5 Sur 8 Sudeste 0.8 -- -- 94
2019-11-13 08:00:00 6.1 2 Nordeste 8 Noroeste 0.2 -- -- 93
2019-11-13 07:00:00 6.3 3 Oeste 5 Oeste 0 -- -- 92
2019-11-13 06:00:00 6.5 2 Norte 9 Sudoeste 0 -- -- 90
2019-11-13 05:00:00 5.7 3 Sur 6 Sudeste 0 -- -- 91
2019-11-13 04:00:00 6.1 3 Sur 11 Oeste 0 -- -- 87
2019-11-13 03:00:00 6.8 6 Oeste 16 Oeste 0 -- -- 86
2019-11-13 02:00:00 6.9 8 Sudoeste 13 Oeste 0 -- -- 86
2019-11-13 01:00:00 7.4 9 Oeste 16 Oeste 0 -- -- 85
2019-11-13 00:00:00 7.7 10 Oeste 18 Oeste 0 -- -- 83
2019-11-12 23:00:00 7.7 9 Sudoeste 16 Oeste 0 -- -- 82
2019-11-12 22:00:00 8 8 Sudoeste 21 Sudoeste 0 -- -- 80
2019-11-12 21:00:00 8.1 9 Sudoeste 18 Oeste 0 -- -- 81
2019-11-12 20:00:00 8.7 8 Sudoeste 18 Oeste 0 -- -- 78
2019-11-12 19:00:00 10.2 12 Oeste 30 Oeste 0 -- -- 73
2019-11-12 18:00:00 11 13 Oeste 29 Oeste 0 -- -- 70
2019-11-12 17:00:00 12.5 13 Oeste 36 Oeste 0 -- -- 65
2019-11-12 16:00:00 14 16 Oeste 36 Oeste 0 -- -- 61
2019-11-12 15:00:00 14.9 14 Noroeste 33 Oeste 0 -- -- 58
2019-11-12 14:00:00 14.7 18 Oeste 34 Oeste 0 -- -- 60
2019-11-12 13:00:00 14.1 11 Noroeste 23 Noroeste 0 -- -- 62
2019-11-12 12:00:00 12.1 9 Oeste 27 Noroeste 0 -- -- 73
2019-11-12 11:00:00 9.9 7 Oeste 22 Noroeste 0 -- -- 77
2019-11-12 10:00:00 8 14 Oeste 25 Oeste 0 -- -- 81
2019-11-12 09:00:00 4.6 8 Oeste 17 Sudoeste 0 -- -- 93
2019-11-12 08:00:00 3.3 7 Oeste 15 Oeste 0 -- -- 91
2019-11-12 07:00:00 4 9 Oeste 17 Oeste 0 -- -- 90
2019-11-12 06:00:00 4.2 10 Oeste 21 Sudoeste 0 -- -- 89
2019-11-12 05:00:00 4.6 10 Sudoeste 21 Oeste 0 -- -- 87
2019-11-12 04:00:00 5.4 12 Oeste 25 Oeste 0 -- -- 85
2019-11-12 03:00:00 5.7 11 Oeste 25 Oeste 0 -- -- 85
2019-11-12 02:00:00 6 13 Oeste 23 Oeste 0 -- -- 83
2019-11-12 01:00:00 6.1 12 Oeste 23 Oeste 0 -- -- 81
2019-11-12 00:00:00 6.2 11 Sudoeste 23 Oeste 0 -- -- 81
2019-11-11 23:00:00 6.5 7 Sudoeste 17 Oeste 0 -- -- 83
2019-11-11 22:00:00 7.1 8 Sudoeste 17 Sudoeste 0 -- -- 84
2019-11-11 21:00:00 7.9 9 Sudoeste 16 Oeste 0 -- -- 85
2019-11-11 20:00:00 8.4 9 Oeste 18 Oeste 0 -- -- 86
2019-11-11 19:00:00 9.1 10 Sudoeste 28 Oeste 0 -- -- 85
2019-11-11 18:00:00 9.9 17 Oeste 28 Oeste 0 -- -- 82
2019-11-11 17:00:00 11.4 12 Oeste 20 Sudoeste 0 -- -- 76
2019-11-11 16:00:00 12.3 9 Oeste 25 Oeste 0 -- -- 67
2019-11-11 15:00:00 12.7 8 Oeste 22 Oeste 0 -- -- 64
2019-11-11 14:00:00 11.5 9 Oeste 22 Noroeste 0 -- -- 68
2019-11-11 13:00:00 10.6 7 Noroeste 19 Oeste 0 -- -- 72
2019-11-11 12:00:00 8.3 5 Noroeste 10 Norte 0 -- -- 79
2019-11-11 11:00:00 7.2 4 Noroeste 10 Oeste 0 -- -- 86
2019-11-11 10:00:00 4 3 Nordeste 5 Norte 0 -- -- 94
2019-11-11 09:00:00 2.7 3 Norte 5 Nordeste 0 -- -- 94
2019-11-11 08:00:00 2.1 0 Calma 7 Este 0 -- -- 92
2019-11-11 07:00:00 3.1 3 Noroeste 12 Sudoeste 0 -- -- 92
2019-11-11 06:00:00 3 8 Oeste 18 Sudoeste 0 -- -- 91
2019-11-11 05:00:00 3 9 Oeste 19 Sudoeste 0 -- -- 90
2019-11-11 04:00:00 3 9 Oeste 21 Sudoeste 0 -- -- 90
2019-11-11 03:00:00 3 12 Sudoeste 23 Oeste 0 -- -- 90
2019-11-11 02:00:00 3.2 10 Oeste 24 Sudoeste 0 -- -- 89
2019-11-11 01:00:00 3.4 12 Oeste 23 Sudoeste 0 -- -- 88
2019-11-11 00:00:00 3.9 12 Oeste 26 Sudoeste 0 -- -- 86
2019-11-10 23:00:00 4.4 12 Sudoeste 27 Sudoeste 0 -- -- 84
2019-11-10 22:00:00 4.9 13 Oeste 29 Sudoeste 0 -- -- 84
2019-11-10 21:00:00 5.4 15 Oeste 29 Oeste 0 -- -- 84
2019-11-10 20:00:00 6 15 Oeste 30 Oeste 0 -- -- 83
2019-11-10 19:00:00 6.8 16 Oeste 29 Sudoeste 0 -- -- 79
2019-11-10 18:00:00 8 17 Oeste 29 Oeste 0 -- -- 75
2019-11-10 17:00:00 9.5 18 Oeste 34 Oeste 0 -- -- 70
2019-11-10 16:00:00 10.7 18 Oeste 39 Oeste 0 -- -- 66
2019-11-10 15:00:00 12 21 Oeste 43 Oeste 0 -- -- 62
2019-11-10 14:00:00 12.8 14 Noroeste 38 Oeste 0 -- -- 58
2019-11-10 13:00:00 12.3 17 Oeste 41 Oeste 0 -- -- 62
2019-11-10 12:00:00 11.4 17 Oeste 34 Oeste 0 -- -- 62
2019-11-10 11:00:00 9.7 16 Oeste 36 Oeste 0 -- -- 69
2019-11-10 10:00:00 8.2 15 Oeste 33 Oeste 0 -- -- 75
2019-11-10 09:00:00 5.9 15 Oeste 27 Oeste 0 -- -- 82
2019-11-10 08:00:00 5.8 14 Oeste 32 Oeste 0 -- -- 81
2019-11-10 07:00:00 5.8 16 Oeste 28 Oeste 0 -- -- 81
2019-11-10 06:00:00 5.9 11 Oeste 22 Noroeste 0 -- -- 81
2019-11-10 05:00:00 6.8 10 Oeste 22 Oeste 0 -- -- 80
2019-11-10 04:00:00 7.8 14 Oeste 30 Noroeste 0 -- -- 81
2019-11-10 03:00:00 8.5 13 Oeste 32 Oeste 0 -- -- 82
2019-11-10 02:00:00 9 13 Oeste 32 Oeste 0 -- -- 87
2019-11-10 01:00:00 9.5 9 Oeste 19 Oeste 0 -- -- 84
2019-11-10 00:00:00 8.5 7 Oeste 18 Oeste 0 -- -- 86
2019-11-09 23:00:00 8.5 5 Oeste 13 Noroeste 0 -- -- 83
2019-11-09 22:00:00 9.1 5 Oeste 14 Oeste 0 -- -- 79
2019-11-09 21:00:00 10.1 6 Oeste 17 Oeste 0 -- -- 76
2019-11-09 20:00:00 10.7 7 Oeste 26 Noroeste 0 -- -- 72
2019-11-09 19:00:00 11.3 12 Oeste 21 Oeste 0 -- -- 66
2019-11-09 18:00:00 11.7 10 Oeste 24 Oeste 0 -- -- 64
2019-11-09 17:00:00 12.4 11 Oeste 33 Noroeste 0 -- -- 62
2019-11-09 16:00:00 13.5 16 Oeste 36 Oeste 0 -- -- 59
2019-11-09 15:00:00 14.2 9 Noroeste 30 Noroeste 0 -- -- 62
2019-11-09 14:00:00 14 10 Noroeste 28 Oeste 0 -- -- 61
2019-11-09 13:00:00 14.1 13 Oeste 25 Oeste 0 -- -- 59
2019-11-09 12:00:00 13.4 10 Oeste 30 Oeste 0 -- -- 66
2019-11-09 11:00:00 11.2 12 Oeste 25 Oeste 0 -- -- 72
2019-11-09 10:00:00 9.4 14 Oeste 24 Oeste 0 -- -- 78
2019-11-09 09:00:00 7.1 12 Oeste 22 Sudoeste 0 -- -- 89
2019-11-09 08:00:00 5.2 9 Oeste 19 Oeste 0 -- -- 91
2019-11-09 07:00:00 5.4 9 Oeste 24 Oeste 0 -- -- 89
2019-11-09 06:00:00 5.6 13 Oeste 28 Oeste 0 -- -- 88
2019-11-09 05:00:00 6.1 16 Oeste 31 Oeste 0 -- -- 87
2019-11-09 04:00:00 5.8 14 Oeste 26 Oeste 0 -- -- 89
2019-11-09 03:00:00 5.6 11 Oeste 22 Oeste 0 -- -- 87
2019-11-09 02:00:00 5.8 12 Oeste 24 Oeste 0 -- -- 86
2019-11-09 01:00:00 6.7 14 Oeste 28 Oeste 0 -- -- 84
2019-11-09 00:00:00 6.9 9 Oeste 23 Oeste 0 -- -- 84
2019-11-08 23:00:00 6.7 10 Oeste 32 Oeste 0 -- -- 84
2019-11-08 22:00:00 6.1 16 Oeste 30 Oeste 0 -- -- 84
2019-11-08 21:00:00 6.5 13 Oeste 39 Oeste 0 -- -- 83
2019-11-08 20:00:00 6.7 18 Oeste 42 Oeste 0 -- -- 82
2019-11-08 19:00:00 7.2 17 Oeste 37 Oeste 0 -- -- 77
2019-11-08 18:00:00 7.8 18 Oeste 54 Oeste 0 -- -- 76
2019-11-08 17:00:00 9.4 28 Oeste 63 Oeste 0 -- -- 71
2019-11-08 16:00:00 11.1 18 Noroeste 50 Noroeste 0 -- -- 62
2019-11-08 15:00:00 12 18 Noroeste 48 Oeste 0 -- -- 56
2019-11-08 14:00:00 12.6 23 Noroeste 48 Oeste 0 -- -- 57
2019-11-08 13:00:00 11.5 19 Oeste 45 Oeste 0 -- -- 62
2019-11-08 12:00:00 11.8 18 Noroeste 46 Oeste 0 -- -- 62
2019-11-08 11:00:00 9.7 18 Oeste 41 Oeste 0 -- -- 70
2019-11-08 10:00:00 7.6 18 Oeste 32 Noroeste 0 -- -- 74
2019-11-08 09:00:00 7 16 Oeste 29 Oeste 0 -- -- 78
2019-11-08 08:00:00 4.6 10 Oeste 26 Oeste 0 -- -- 83
2019-11-08 07:00:00 4.5 15 Oeste 31 Oeste 0 -- -- 84
2019-11-08 06:00:00 4.5 15 Oeste 28 Oeste 0 -- -- 86
2019-11-08 05:00:00 4.1 10 Oeste 22 Sudoeste 0 -- -- 87
2019-11-08 04:00:00 3.8 6 Sudoeste 15 Oeste 0 -- -- 89
2019-11-08 03:00:00 4.2 5 Oeste 20 Oeste 0 -- -- 86
2019-11-08 02:00:00 5.7 10 Oeste 26 Oeste 0 -- -- 86
2019-11-08 01:00:00 6.2 10 Oeste 22 Oeste 0 -- -- 86
2019-11-08 00:00:00 7.3 13 Oeste 30 Oeste 0 -- -- 83
2019-11-07 23:00:00 7.7 9 Noroeste 22 Oeste 0 -- -- 81
2019-11-07 22:00:00 7.8 12 Oeste 23 Oeste 0 -- -- 80
2019-11-07 21:00:00 7.6 7 Sudoeste 17 Sudoeste 0 -- -- 80
2019-11-07 20:00:00 8.2 10 Oeste 21 Oeste 0 -- -- 77
2019-11-07 19:00:00 9.2 12 Oeste 27 Oeste 0 -- -- 74
2019-11-07 18:00:00 10.3 9 Oeste 19 Oeste 0 -- -- 69
2019-11-07 17:00:00 12.6 14 Oeste 32 Oeste 0 -- -- 61
2019-11-07 16:00:00 13.7 11 Oeste 31 Oeste 0 -- -- 63
2019-11-07 15:00:00 13.5 14 Oeste 36 Oeste 0 -- -- 68
2019-11-07 14:00:00 13.9 10 Oeste 21 Oeste 0 -- -- 73
2019-11-07 13:00:00 13.7 7 Oeste 22 Oeste 0 -- -- 72
2019-11-07 12:00:00 11.5 5 Noroeste 10 Noroeste 0 -- -- 78
2019-11-07 11:00:00 9.8 3 Noroeste 6 Oeste 0 -- -- 84
2019-11-07 10:00:00 9.8 4 Noroeste 7 Noroeste 0 -- -- 86
2019-11-07 09:00:00 8.7 2 Nordeste 4 Sur 0 -- -- 92
2019-11-07 08:00:00 6.6 3 Sur 4 Sur 0 -- -- 93
2019-11-07 07:00:00 7.1 2 Sur 6 Sur 0 -- -- 94
2019-11-07 06:00:00 6.2 5 Sur 6 Sur 0 -- -- 94
2019-11-07 05:00:00 6.6 0 Calma 5 Norte 0 -- -- 91
2019-11-07 04:00:00 6.7 3 Oeste 5 Oeste 0 -- -- 92
2019-11-07 03:00:00 7.1 4 Oeste 7 Sudoeste 0 -- -- 91
2019-11-07 02:00:00 7 4 Sudeste 5 Sudoeste 0 -- -- 88
2019-11-07 01:00:00 8 3 Oeste 15 Oeste 0 -- -- 84
2019-11-07 00:00:00 8.9 9 Oeste 18 Oeste 0 -- -- 81
2019-11-06 23:00:00 9.1 10 Oeste 19 Oeste 0 -- -- 79
2019-11-06 22:00:00 8.9 9 Oeste 15 Oeste 0 -- -- 80
2019-11-06 21:00:00 9.5 6 Sudoeste 15 Oeste 0 -- -- 77
2019-11-06 20:00:00 10.6 9 Oeste 21 Sudoeste 0 -- -- 74
2019-11-06 19:00:00 11.3 14 Oeste 26 Oeste 0 -- -- 72
2019-11-06 18:00:00 12.5 9 Oeste 22 Oeste 0 -- -- 68
2019-11-06 17:00:00 14.4 10 Oeste 29 Oeste 0 -- -- 62
2019-11-06 16:00:00 16 18 Oeste 36 Oeste 0 -- -- 57
2019-11-06 15:00:00 16.8 17 Oeste 36 Oeste 0 -- -- 57
2019-11-06 14:00:00 16.1 18 Oeste 34 Oeste 0 -- -- 61
2019-11-06 13:00:00 15.7 11 Oeste 29 Noroeste 0 -- -- 64
2019-11-06 12:00:00 15.5 10 Noroeste 33 Noroeste 0 -- -- 64
2019-11-06 11:00:00 12.9 13 Oeste 29 Oeste 0 -- -- 73
2019-11-06 10:00:00 11.5 11 Oeste 27 Oeste 0 -- -- 78
2019-11-06 09:00:00 10.3 10 Oeste 19 Oeste 0 -- -- 85
2019-11-06 08:00:00 7.6 12 Oeste 21 Oeste 0 -- -- 91
2019-11-06 07:00:00 7.7 9 Oeste 20 Sudoeste 0 -- -- 93
2019-11-06 06:00:00 7.3 5 Oeste 17 Noroeste 0 -- -- 92
2019-11-06 05:00:00 7.5 6 Sudoeste 19 Sudoeste 0 -- -- 89
2019-11-06 04:00:00 7.8 10 Oeste 19 Sudoeste 0 -- -- 87
2019-11-06 03:00:00 8.5 11 Oeste 27 Noroeste 0 -- -- 86
2019-11-06 02:00:00 8.6 11 Oeste 31 Oeste 0 -- -- 85
2019-11-06 01:00:00 8.8 9 Noroeste 24 Oeste 0 -- -- 84
2019-11-06 00:00:00 9 12 Oeste 32 Oeste 0 -- -- 82